Alburg, Vermont
Current Conditions -  °F | °C
As of 2:15 AM on Sunday 26 Oct 2014 (Local Time) from KFSO Reporting Station
Overcast Overcast  
Wind Chill: 45°   Ceiling: 8500
Heat Index: 47°   Visibility: 10mi
Dew Point: 44°   Wind: 5mph
Humidity: 88%   Direction: 240°WSW
Pressure: 29.41"   Gusts: NA
Location:  44.9685°N, 73.281°W
Report Text: KFSO 260615Z AUTO 24004KT 10SM SCT075 OVC085 09/07 A2941 RMK AO2 T00850066
Loading
Personal Weather Stations






























Interactive Weather Map New forecast layout! Learn more

10-Day Weather Forecast

Advertisements
Track Severe Weather on mobile